createdAt,value
2022-12-31T00:03:47.835Z,14.12
2022-12-31T00:08:47.476Z,14.13
2022-12-31T00:13:47.449Z,14.18
2022-12-31T00:18:46.998Z,14.2
2022-12-31T00:23:45.553Z,14.18
2022-12-31T00:28:45.798Z,14.12
2022-12-31T00:33:44.710Z,14.05
2022-12-31T00:38:45.264Z,13.95
2022-12-31T00:43:41.622Z,13.86
2022-12-31T00:48:41.328Z,13.89
2022-12-31T00:53:40.779Z,13.9
2022-12-31T00:58:30.721Z,13.91
2022-12-31T01:03:28.362Z,14.06
2022-12-31T01:08:27.833Z,14.16
2022-12-31T01:13:28.290Z,14.11
2022-12-31T01:18:27.605Z,14.09
2022-12-31T01:23:27.115Z,14.13
2022-12-31T01:28:26.832Z,14.12
2022-12-31T01:33:27.029Z,14.18
2022-12-31T01:38:26.437Z,14.37
2022-12-31T01:43:27.551Z,14.51
2022-12-31T01:48:23.772Z,14.61
2022-12-31T01:53:23.623Z,14.7
2022-12-31T01:58:23.637Z,14.72
2022-12-31T01:59:45.393Z,14.73
2022-12-31T02:04:45.510Z,14.84
2022-12-31T02:09:47.175Z,15.06
2022-12-31T02:14:45.576Z,15.15
2022-12-31T02:19:45.181Z,15.16
2022-12-31T02:24:45.599Z,15.18
2022-12-31T02:29:44.647Z,15.19
2022-12-31T02:34:45.466Z,15.19
2022-12-31T02:39:41.716Z,15.26
2022-12-31T02:44:42.295Z,15.36
2022-12-31T02:49:41.148Z,15.53
2022-12-31T02:54:41.053Z,15.59
2022-12-31T02:58:54.661Z,15.59
2022-12-31T03:03:54.589Z,15.6
2022-12-31T03:08:54.886Z,15.59
2022-12-31T03:13:54.203Z,15.63
2022-12-31T03:18:53.749Z,15.61
2022-12-31T03:23:53.720Z,15.59
2022-12-31T03:28:53.380Z,15.62
2022-12-31T03:33:54.449Z,15.6
2022-12-31T03:38:52.776Z,15.7
2022-12-31T03:43:50.839Z,15.78
2022-12-31T03:48:50.581Z,15.83
2022-12-31T03:53:49.975Z,15.79
2022-12-31T03:58:49.752Z,15.74
2022-12-31T04:03:49.511Z,15.77
2022-12-31T04:08:49.167Z,15.82
2022-12-31T04:13:50.262Z,15.8
2022-12-31T04:18:46.595Z,15.75
2022-12-31T04:23:46.556Z,15.77
2022-12-31T04:28:46.014Z,15.85
2022-12-31T04:33:45.751Z,15.84
2022-12-31T04:38:43.314Z,15.87
2022-12-31T04:43:42.664Z,15.99
2022-12-31T04:48:43.141Z,16
2022-12-31T04:53:44.491Z,15.96
2022-12-31T04:58:40.846Z,15.89
2022-12-31T05:00:02.531Z,15.86
2022-12-31T05:05:01.658Z,15.83
2022-12-31T05:10:01.270Z,15.86
2022-12-31T05:14:58.614Z,15.87
2022-12-31T05:19:58.646Z,15.91
2022-12-31T05:24:58.724Z,15.88
2022-12-31T05:29:57.447Z,15.87
2022-12-31T05:34:57.663Z,15.88
2022-12-31T05:39:57.133Z,15.89
2022-12-31T05:44:58.141Z,15.85
2022-12-31T05:49:54.435Z,15.83
2022-12-31T05:54:54.466Z,15.8
2022-12-31T05:59:25.385Z,15.77
2022-12-31T06:04:27.021Z,15.73
2022-12-31T06:09:13.454Z,15.71
2022-12-31T06:14:13.451Z,15.64
2022-12-31T06:19:12.873Z,15.66
2022-12-31T06:24:10.272Z,15.57
2022-12-31T06:29:10.050Z,15.5
2022-12-31T06:34:10.032Z,15.49
2022-12-31T06:39:09.626Z,15.5
2022-12-31T06:44:09.177Z,15.49
2022-12-31T06:49:08.638Z,15.55
2022-12-31T06:54:08.814Z,15.57
2022-12-31T06:59:00.214Z,15.56
2022-12-31T07:04:01.481Z,15.62
2022-12-31T07:08:59.082Z,15.67
2022-12-31T07:13:58.155Z,15.75
2022-12-31T07:18:57.742Z,15.74
2022-12-31T07:23:56.320Z,15.72
2022-12-31T07:28:56.130Z,15.7
2022-12-31T07:33:55.279Z,15.74
2022-12-31T07:38:55.048Z,15.76
2022-12-31T07:43:53.185Z,15.73
2022-12-31T07:48:53.031Z,15.83
2022-12-31T07:53:52.729Z,15.85
2022-12-31T07:58:53.876Z,15.93
2022-12-31T08:03:50.133Z,15.96
2022-12-31T08:08:49.998Z,16.02
2022-12-31T08:14:42.235Z,16.15
2022-12-31T08:18:48.735Z,16.24
2022-12-31T08:23:47.471Z,16.29
2022-12-31T08:28:48.149Z,16.37
2022-12-31T08:33:47.728Z,16.46
2022-12-31T08:38:44.859Z,16.58
2022-12-31T08:43:44.577Z,16.68
2022-12-31T08:48:44.844Z,16.7
2022-12-31T08:53:44.308Z,16.74
2022-12-31T08:58:43.781Z,16.82
2022-12-31T09:03:43.449Z,16.9
2022-12-31T09:08:44.419Z,16.96
2022-12-31T09:13:42.269Z,17.07
2022-12-31T09:18:42.313Z,17.11
2022-12-31T09:23:41.445Z,17.15
2022-12-31T09:28:41.582Z,17.11
2022-12-31T09:33:38.759Z,17.2
2022-12-31T09:38:38.526Z,17.37
2022-12-31T09:43:37.973Z,17.48
2022-12-31T09:48:37.498Z,17.5
2022-12-31T09:53:36.908Z,17.51
2022-12-31T09:58:36.697Z,17.61
2022-12-31T09:59:57.879Z,17.62
2022-12-31T10:04:57.471Z,17.78
2022-12-31T10:09:58.506Z,17.95
2022-12-31T10:14:54.866Z,18.08
2022-12-31T10:19:54.964Z,18.24
2022-12-31T10:24:54.354Z,18.37
2022-12-31T10:29:54.418Z,18.45
2022-12-31T10:34:51.922Z,18.54
2022-12-31T10:39:51.657Z,18.65
2022-12-31T10:44:52.261Z,18.73
2022-12-31T10:49:53.527Z,18.75
2022-12-31T10:54:51.232Z,18.7
2022-12-31T10:59:11.814Z,18.69
2022-12-31T11:04:11.699Z,18.77
2022-12-31T11:09:10.964Z,18.95
2022-12-31T11:14:11.037Z,19.11
2022-12-31T11:19:10.865Z,19.25
2022-12-31T11:24:10.579Z,19.36
2022-12-31T11:29:11.841Z,19.53
2022-12-31T11:34:08.128Z,19.49
2022-12-31T11:39:07.954Z,19.44
2022-12-31T11:44:07.168Z,19.48
2022-12-31T11:49:07.100Z,19.56
2022-12-31T11:54:04.690Z,19.61
2022-12-31T11:58:30.911Z,19.83
2022-12-31T12:03:31.205Z,19.89
2022-12-31T12:08:32.288Z,19.87
2022-12-31T12:13:29.407Z,19.94
2022-12-31T12:18:29.835Z,20.07
2022-12-31T12:23:28.567Z,19.99
2022-12-31T12:28:29.153Z,19.87
2022-12-31T12:33:28.885Z,19.92
2022-12-31T12:38:26.541Z,19.91
2022-12-31T12:43:26.775Z,19.87
2022-12-31T12:48:26.931Z,19.79
2022-12-31T12:53:25.322Z,19.71
2022-12-31T12:58:25.417Z,19.64
2022-12-31T12:59:46.878Z,19.6
2022-12-31T13:04:46.627Z,19.57
2022-12-31T13:09:43.692Z,19.53
2022-12-31T13:14:43.335Z,19.45
2022-12-31T13:19:43.587Z,19.48
2022-12-31T13:24:43.318Z,19.45
2022-12-31T13:29:42.346Z,19.42
2022-12-31T13:34:42.166Z,19.37
2022-12-31T13:39:41.863Z,19.32
2022-12-31T13:44:41.630Z,19.29
2022-12-31T13:49:39.281Z,19.25
2022-12-31T13:54:38.972Z,19.17
2022-12-31T13:59:12.365Z,19.14
2022-12-31T14:04:11.965Z,19.06
2022-12-31T14:09:10.451Z,19
2022-12-31T14:14:10.776Z,18.93
2022-12-31T14:19:10.061Z,18.82
2022-12-31T14:24:09.439Z,18.78
2022-12-31T14:29:08.804Z,18.71
2022-12-31T14:34:08.809Z,18.62
2022-12-31T14:39:08.105Z,18.53
2022-12-31T14:44:09.241Z,18.46
2022-12-31T14:49:05.422Z,18.42
2022-12-31T14:54:05.455Z,18.43
2022-12-31T14:58:51.841Z,18.43
2022-12-31T15:03:51.564Z,18.36
2022-12-31T15:08:48.861Z,18.25
2022-12-31T15:13:48.587Z,18.25
2022-12-31T15:18:48.472Z,18.2
2022-12-31T15:23:49.644Z,18.15
2022-12-31T15:28:45.956Z,18.11
2022-12-31T15:33:46.152Z,18.04
2022-12-31T15:38:45.039Z,17.96
2022-12-31T15:43:44.798Z,17.93
2022-12-31T15:48:42.300Z,17.86
2022-12-31T15:53:42.295Z,17.87
2022-12-31T15:58:42.511Z,17.77
2022-12-31T16:03:39.800Z,17.66
2022-12-31T16:08:39.513Z,17.66
2022-12-31T16:13:40.283Z,17.6
2022-12-31T16:18:39.660Z,17.5
2022-12-31T16:23:42.449Z,17.41
2022-12-31T16:28:38.368Z,17.45
2022-12-31T16:33:38.667Z,17.46
2022-12-31T16:38:37.928Z,17.46
2022-12-31T16:43:39.427Z,17.4
2022-12-31T16:48:36.299Z,17.35
2022-12-31T16:53:35.469Z,17.29
2022-12-31T16:58:35.095Z,17.28
2022-12-31T16:59:56.958Z,17.27
2022-12-31T17:04:56.654Z,17.26
2022-12-31T17:09:56.047Z,17.27
2022-12-31T17:14:55.674Z,17.29
2022-12-31T17:19:56.577Z,17.21
2022-12-31T17:24:52.901Z,17.12
2022-12-31T17:29:52.788Z,17.04
2022-12-31T17:34:53.640Z,16.99
2022-12-31T17:39:51.903Z,16.91
2022-12-31T17:44:51.809Z,16.82
2022-12-31T17:49:51.359Z,16.82
2022-12-31T17:54:51.016Z,16.84
2022-12-31T17:58:50.703Z,16.83
2022-12-31T18:03:50.828Z,16.73
2022-12-31T18:08:51.059Z,16.66
2022-12-31T18:13:52.185Z,16.57
2022-12-31T18:18:49.783Z,16.48
2022-12-31T18:23:48.895Z,16.32
2022-12-31T18:28:48.429Z,16
2022-12-31T18:33:48.108Z,15.87
2022-12-31T18:38:47.409Z,15.81
2022-12-31T18:43:47.329Z,15.79
2022-12-31T18:48:46.691Z,15.77
2022-12-31T18:53:47.926Z,15.81
2022-12-31T18:58:44.199Z,15.88
2022-12-31T19:03:44.063Z,16
2022-12-31T19:08:43.259Z,15.96
2022-12-31T19:13:42.528Z,15.98
2022-12-31T19:18:42.786Z,16.07
2022-12-31T19:23:41.964Z,16.24
2022-12-31T19:28:41.750Z,16.41
2022-12-31T19:33:39.087Z,16.44
2022-12-31T19:38:38.536Z,16.48
2022-12-31T19:43:38.076Z,16.54
2022-12-31T19:48:39.322Z,16.59
2022-12-31T19:53:35.671Z,16.61
2022-12-31T19:58:35.399Z,16.54
2022-12-31T19:59:57.228Z,16.53
2022-12-31T20:04:57.051Z,16.42
2022-12-31T20:09:54.225Z,16.34
2022-12-31T20:14:53.800Z,16.32
2022-12-31T20:19:54.111Z,16.44
2022-12-31T20:24:53.684Z,16.43
2022-12-31T20:29:52.913Z,16.48
2022-12-31T20:34:52.545Z,16.4
2022-12-31T20:39:52.436Z,16.29
2022-12-31T20:44:51.922Z,16.15
2022-12-31T20:50:10.817Z,15.94
2022-12-31T20:54:50.556Z,15.82
2022-12-31T20:59:36.990Z,15.81
2022-12-31T21:04:35.225Z,15.92
2022-12-31T21:09:34.841Z,16.03
2022-12-31T21:14:34.144Z,15.99
2022-12-31T21:19:33.598Z,16.14
2022-12-31T21:24:33.347Z,16.23
2022-12-31T21:29:34.677Z,16.37
2022-12-31T21:34:32.856Z,16.39
2022-12-31T21:39:31.987Z,16.37
2022-12-31T21:44:33.021Z,16.32
2022-12-31T21:49:29.274Z,16.24
2022-12-31T21:54:29.297Z,16.2
2022-12-31T21:58:56.840Z,16.2
2022-12-31T22:03:56.823Z,16.21
2022-12-31T22:08:54.078Z,16.14
2022-12-31T22:13:53.736Z,16.17
2022-12-31T22:18:53.927Z,16.12
2022-12-31T22:23:53.802Z,16.18
2022-12-31T22:28:52.967Z,16.17
2022-12-31T22:33:52.872Z,16.19
2022-12-31T22:38:52.795Z,16.21
2022-12-31T22:43:55.022Z,16.19
2022-12-31T22:48:50.140Z,16.1
2022-12-31T22:53:49.960Z,16.04
2022-12-31T22:58:36.314Z,16.14
2022-12-31T23:03:36.115Z,16.19
2022-12-31T23:08:35.172Z,16.23
2022-12-31T23:13:34.948Z,16.19
2022-12-31T23:18:34.711Z,16.12
2022-12-31T23:23:34.445Z,16.1
2022-12-31T23:28:35.556Z,16.14
2022-12-31T23:33:31.931Z,16.15
2022-12-31T23:38:32.061Z,16.06
2022-12-31T23:43:31.199Z,16.07
2022-12-31T23:48:31.043Z,16.04
2022-12-31T23:53:28.377Z,16
2022-12-31T23:58:25.413Z,15.97
